CheckWX is a tool to help pilots better visualize weather data.  It is not intended as a substitute for an official pre-flight weather briefing.

15:32:29 UTC

ENSH METAR
Svolvær Helle Airport
Svolvær, Norway
Current

1 hour ago

ENSH 201420Z 21008KT CAVOK 16/06 Q1015 RMK WIND 150FT 18008KT
Observed
May-20 @ 14:20 UTC
Wind
  • 210° at 8 KTS
Visibility
10,000+ meters
Flight Rules
VFR
Cloud Levels
  • Clear skies
Temperature
16°C / 61°F
Dewpoint
C / 43°F
Humidity
52%
Altimeter
29.97" Hg
Pressure
1014.92 hPa
Previous

2 hours ago

ENSH 201350Z 23009KT CAVOK 16/05 Q1015 RMK WIND 150FT 18010KT
Observed
May-20 @ 13:50 UTC
Wind
  • 230° at 9 KTS
Visibility
10,000+ meters
Flight Rules
VFR
Cloud Levels
  • Clear skies
Temperature
16°C / 61°F
Dewpoint
C / 41°F
Humidity
48%
Altimeter
29.97" Hg
Pressure
1014.92 hPa
Previous

2 hours ago

ENSH 201320Z 22009KT CAVOK 16/06 Q1015 RMK WIND 150FT 17009KT
Observed
May-20 @ 13:20 UTC
Wind
  • 220° at 9 KTS
Visibility
10,000+ meters
Flight Rules
VFR
Cloud Levels
  • Clear skies
Temperature
16°C / 61°F
Dewpoint
C / 43°F
Humidity
52%
Altimeter
29.97" Hg
Pressure
1014.92 hPa